sensor_id;sensor_type;location;lat;lon;timestamp;P1;durP1;ratioP1;P2;durP2;ratioP2
72358;SDS011;60317;48.880;-0.862;2023-04-01T00:00:59;6.97;;;2.40;;
72358;SDS011;60317;48.880;-0.862;2023-04-01T00:03:27;11.32;;;3.00;;
72358;SDS011;60317;48.880;-0.862;2023-04-01T00:05:54;8.73;;;2.55;;
72358;SDS011;60317;48.880;-0.862;2023-04-01T00:08:21;9.40;;;2.63;;
72358;SDS011;60317;48.880;-0.862;2023-04-01T00:10:48;8.98;;;2.88;;
72358;SDS011;60317;48.880;-0.862;2023-04-01T00:13:16;10.18;;;2.70;;
72358;SDS011;60317;48.880;-0.862;2023-04-01T00:15:43;10.90;;;3.00;;
72358;SDS011;60317;48.880;-0.862;2023-04-01T00:18:10;9.48;;;2.70;;
72358;SDS011;60317;48.880;-0.862;2023-04-01T00:20:38;9.23;;;2.53;;
72358;SDS011;60317;48.880;-0.862;2023-04-01T00:23:04;10.15;;;2.40;;
72358;SDS011;60317;48.880;-0.862;2023-04-01T00:25:31;9.90;;;2.55;;
72358;SDS011;60317;48.880;-0.862;2023-04-01T00:27:58;8.57;;;2.72;;
72358;SDS011;60317;48.880;-0.862;2023-04-01T00:30:26;10.35;;;2.50;;
72358;SDS011;60317;48.880;-0.862;2023-04-01T00:32:52;9.32;;;2.72;;
72358;SDS011;60317;48.880;-0.862;2023-04-01T00:35:19;9.57;;;2.35;;
72358;SDS011;60317;48.880;-0.862;2023-04-01T00:37:46;11.75;;;2.60;;
72358;SDS011;60317;48.880;-0.862;2023-04-01T00:40:20;8.55;;;2.80;;
72358;SDS011;60317;48.880;-0.862;2023-04-01T00:42:50;9.05;;;2.58;;
72358;SDS011;60317;48.880;-0.862;2023-04-01T00:45:23;10.15;;;2.78;;
72358;SDS011;60317;48.880;-0.862;2023-04-01T00:47:55;11.88;;;3.22;;
72358;SDS011;60317;48.880;-0.862;2023-04-01T00:50:24;13.45;;;3.03;;
72358;SDS011;60317;48.880;-0.862;2023-04-01T00:52:52;8.73;;;2.70;;
72358;SDS011;60317;48.880;-0.862;2023-04-01T00:55:19;8.90;;;2.63;;
72358;SDS011;60317;48.880;-0.862;2023-04-01T00:57:49;10.60;;;2.83;;
72358;SDS011;60317;48.880;-0.862;2023-04-01T01:00:19;11.38;;;3.10;;
72358;SDS011;60317;48.880;-0.862;2023-04-01T01:02:47;11.20;;;2.72;;
72358;SDS011;60317;48.880;-0.862;2023-04-01T01:05:17;9.90;;;2.90;;
72358;SDS011;60317;48.880;-0.862;2023-04-01T01:07:52;8.52;;;2.92;;
72358;SDS011;60317;48.880;-0.862;2023-04-01T01:10:29;11.52;;;3.03;;
72358;SDS011;60317;48.880;-0.862;2023-04-01T01:13:00;11.85;;;3.28;;
72358;SDS011;60317;48.880;-0.862;2023-04-01T01:15:36;11.93;;;2.90;;
72358;SDS011;60317;48.880;-0.862;2023-04-01T01:18:09;10.02;;;2.45;;
72358;SDS011;60317;48.880;-0.862;2023-04-01T01:20:46;10.68;;;2.95;;
72358;SDS011;60317;48.880;-0.862;2023-04-01T01:26:16;10.95;;;2.55;;
72358;SDS011;60317;48.880;-0.862;2023-04-01T01:29:01;10.60;;;2.85;;
72358;SDS011;60317;48.880;-0.862;2023-04-01T01:31:43;10.02;;;3.08;;
72358;SDS011;60317;48.880;-0.862;2023-04-01T01:34:17;8.02;;;2.45;;
72358;SDS011;60317;48.880;-0.862;2023-04-01T01:36:57;10.30;;;2.40;;
72358;SDS011;60317;48.880;-0.862;2023-04-01T01:39:28;12.05;;;2.72;;
72358;SDS011;60317;48.880;-0.862;2023-04-01T01:41:57;12.38;;;2.85;;
72358;SDS011;60317;48.880;-0.862;2023-04-01T01:44:27;9.70;;;2.55;;
72358;SDS011;60317;48.880;-0.862;2023-04-01T01:46:56;7.25;;;2.10;;
72358;SDS011;60317;48.880;-0.862;2023-04-01T01:49:23;7.22;;;2.40;;
72358;SDS011;60317;48.880;-0.862;2023-04-01T01:51:51;11.95;;;2.72;;
72358;SDS011;60317;48.880;-0.862;2023-04-01T01:54:19;8.75;;;2.40;;
72358;SDS011;60317;48.880;-0.862;2023-04-01T01:56:46;7.95;;;2.28;;
72358;SDS011;60317;48.880;-0.862;2023-04-01T01:59:16;9.82;;;2.88;;
72358;SDS011;60317;48.880;-0.862;2023-04-01T02:01:48;10.98;;;2.70;;
72358;SDS011;60317;48.880;-0.862;2023-04-01T02:04:17;11.02;;;2.92;;
72358;SDS011;60317;48.880;-0.862;2023-04-01T02:06:46;7.00;;;2.53;;
72358;SDS011;60317;48.880;-0.862;2023-04-01T02:09:17;8.20;;;2.40;;
72358;SDS011;60317;48.880;-0.862;2023-04-01T02:11:47;14.93;;;2.67;;
72358;SDS011;60317;48.880;-0.862;2023-04-01T02:14:17;10.23;;;3.10;;
72358;SDS011;60317;48.880;-0.862;2023-04-01T02:16:47;11.23;;;3.03;;
72358;SDS011;60317;48.880;-0.862;2023-04-01T02:19:17;7.60;;;2.80;;
72358;SDS011;60317;48.880;-0.862;2023-04-01T02:21:44;8.35;;;2.60;;
72358;SDS011;60317;48.880;-0.862;2023-04-01T02:24:12;8.48;;;2.40;;
72358;SDS011;60317;48.880;-0.862;2023-04-01T02:26:42;12.13;;;3.28;;
72358;SDS011;60317;48.880;-0.862;2023-04-01T02:29:10;7.53;;;2.55;;
72358;SDS011;60317;48.880;-0.862;2023-04-01T02:31:38;10.18;;;2.85;;
72358;SDS011;60317;48.880;-0.862;2023-04-01T02:34:05;9.82;;;2.33;;
72358;SDS011;60317;48.880;-0.862;2023-04-01T02:36:32;11.15;;;2.97;;
72358;SDS011;60317;48.880;-0.862;2023-04-01T02:39:01;8.73;;;2.47;;
72358;SDS011;60317;48.880;-0.862;2023-04-01T02:41:28;9.15;;;2.63;;
72358;SDS011;60317;48.880;-0.862;2023-04-01T02:43:56;8.00;;;2.30;;
72358;SDS011;60317;48.880;-0.862;2023-04-01T02:46:23;6.95;;;2.47;;
72358;SDS011;60317;48.880;-0.862;2023-04-01T02:48:50;7.57;;;2.40;;
72358;SDS011;60317;48.880;-0.862;2023-04-01T02:51:16;6.97;;;1.95;;
72358;SDS011;60317;48.880;-0.862;2023-04-01T02:53:43;8.25;;;2.20;;
72358;SDS011;60317;48.880;-0.862;2023-04-01T02:56:10;9.15;;;2.75;;
72358;SDS011;60317;48.880;-0.862;2023-04-01T02:58:36;8.35;;;2.53;;
72358;SDS011;60317;48.880;-0.862;2023-04-01T03:01:04;9.48;;;2.30;;
72358;SDS011;60317;48.880;-0.862;2023-04-01T03:03:31;7.70;;;2.33;;
72358;SDS011;60317;48.880;-0.862;2023-04-01T03:05:57;8.68;;;2.40;;
72358;SDS011;60317;48.880;-0.862;2023-04-01T03:08:24;8.07;;;2.05;;
72358;SDS011;60317;48.880;-0.862;2023-04-01T03:10:50;8.77;;;2.63;;
72358;SDS011;60317;48.880;-0.862;2023-04-01T03:13:17;7.82;;;2.50;;
72358;SDS011;60317;48.880;-0.862;2023-04-01T03:15:43;9.57;;;2.40;;
72358;SDS011;60317;48.880;-0.862;2023-04-01T03:18:11;8.40;;;2.25;;
72358;SDS011;60317;48.880;-0.862;2023-04-01T03:20:37;7.72;;;2.20;;
72358;SDS011;60317;48.880;-0.862;2023-04-01T03:23:04;9.75;;;2.53;;
72358;SDS011;60317;48.880;-0.862;2023-04-01T03:25:30;8.13;;;2.28;;
72358;SDS011;60317;48.880;-0.862;2023-04-01T03:27:57;7.13;;;2.20;;
72358;SDS011;60317;48.880;-0.862;2023-04-01T03:30:24;7.38;;;2.22;;
72358;SDS011;60317;48.880;-0.862;2023-04-01T03:32:50;6.43;;;2.20;;
72358;SDS011;60317;48.880;-0.862;2023-04-01T03:35:18;5.82;;;2.00;;
72358;SDS011;60317;48.880;-0.862;2023-04-01T03:37:45;7.03;;;2.33;;
72358;SDS011;60317;48.880;-0.862;2023-04-01T03:40:11;7.47;;;2.03;;
72358;SDS011;60317;48.880;-0.862;2023-04-01T03:42:38;7.97;;;2.30;;
72358;SDS011;60317;48.880;-0.862;2023-04-01T03:45:05;5.70;;;1.77;;
72358;SDS011;60317;48.880;-0.862;2023-04-01T03:47:32;8.43;;;2.45;;
72358;SDS011;60317;48.880;-0.862;2023-04-01T03:49:58;6.80;;;2.30;;
72358;SDS011;60317;48.880;-0.862;2023-04-01T03:52:26;8.13;;;2.22;;
72358;SDS011;60317;48.880;-0.862;2023-04-01T03:54:53;5.25;;;1.90;;
72358;SDS011;60317;48.880;-0.862;2023-04-01T03:57:19;7.00;;;2.42;;
72358;SDS011;60317;48.880;-0.862;2023-04-01T03:59:46;9.07;;;2.22;;
72358;SDS011;60317;48.880;-0.862;2023-04-01T04:02:12;6.63;;;2.10;;
72358;SDS011;60317;48.880;-0.862;2023-04-01T04:04:39;9.98;;;2.60;;
72358;SDS011;60317;48.880;-0.862;2023-04-01T04:07:06;9.23;;;2.13;;
72358;SDS011;60317;48.880;-0.862;2023-04-01T04:09:34;6.60;;;1.95;;
72358;SDS011;60317;48.880;-0.862;2023-04-01T04:12:00;8.43;;;2.10;;
72358;SDS011;60317;48.880;-0.862;2023-04-01T04:14:27;7.03;;;2.20;;
72358;SDS011;60317;48.880;-0.862;2023-04-01T04:16:54;7.20;;;2.13;;
72358;SDS011;60317;48.880;-0.862;2023-04-01T04:19:20;12.10;;;2.33;;
72358;SDS011;60317;48.880;-0.862;2023-04-01T04:21:47;10.55;;;2.60;;
72358;SDS011;60317;48.880;-0.862;2023-04-01T04:24:13;8.23;;;2.20;;
72358;SDS011;60317;48.880;-0.862;2023-04-01T04:26:41;6.10;;;2.20;;
72358;SDS011;60317;48.880;-0.862;2023-04-01T04:29:08;8.57;;;2.25;;
72358;SDS011;60317;48.880;-0.862;2023-04-01T04:31:34;6.90;;;2.20;;
72358;SDS011;60317;48.880;-0.862;2023-04-01T04:34:01;9.50;;;2.47;;
72358;SDS011;60317;48.880;-0.862;2023-04-01T04:36:27;7.88;;;2.17;;
72358;SDS011;60317;48.880;-0.862;2023-04-01T04:38:54;8.20;;;1.95;;
72358;SDS011;60317;48.880;-0.862;2023-04-01T04:41:20;7.20;;;2.40;;
72358;SDS011;60317;48.880;-0.862;2023-04-01T04:43:50;9.60;;;2.35;;
72358;SDS011;60317;48.880;-0.862;2023-04-01T04:46:18;7.50;;;2.10;;
72358;SDS011;60317;48.880;-0.862;2023-04-01T04:48:45;6.80;;;2.00;;
72358;SDS011;60317;48.880;-0.862;2023-04-01T04:51:14;8.70;;;2.45;;
72358;SDS011;60317;48.880;-0.862;2023-04-01T04:53:41;9.75;;;2.65;;
72358;SDS011;60317;48.880;-0.862;2023-04-01T04:56:08;7.60;;;2.33;;
72358;SDS011;60317;48.880;-0.862;2023-04-01T04:58:35;9.18;;;2.47;;
72358;SDS011;60317;48.880;-0.862;2023-04-01T05:01:06;7.45;;;2.75;;
72358;SDS011;60317;48.880;-0.862;2023-04-01T05:03:34;7.18;;;2.10;;
72358;SDS011;60317;48.880;-0.862;2023-04-01T05:06:01;8.90;;;2.40;;
72358;SDS011;60317;48.880;-0.862;2023-04-01T05:08:27;9.68;;;2.40;;
72358;SDS011;60317;48.880;-0.862;2023-04-01T05:10:54;7.88;;;2.30;;
72358;SDS011;60317;48.880;-0.862;2023-04-01T05:13:20;7.72;;;2.30;;
72358;SDS011;60317;48.880;-0.862;2023-04-01T05:15:47;8.63;;;2.25;;
72358;SDS011;60317;48.880;-0.862;2023-04-01T05:18:15;6.65;;;1.95;;
72358;SDS011;60317;48.880;-0.862;2023-04-01T05:20:45;6.60;;;2.25;;
72358;SDS011;60317;48.880;-0.862;2023-04-01T05:23:12;6.63;;;2.10;;
72358;SDS011;60317;48.880;-0.862;2023-04-01T05:25:39;7.13;;;1.95;;
72358;SDS011;60317;48.880;-0.862;2023-04-01T05:28:05;8.98;;;2.40;;
72358;SDS011;60317;48.880;-0.862;2023-04-01T05:30:32;8.05;;;2.20;;
72358;SDS011;60317;48.880;-0.862;2023-04-01T05:32:58;6.15;;;1.85;;
72358;SDS011;60317;48.880;-0.862;2023-04-01T05:35:26;7.20;;;2.03;;
72358;SDS011;60317;48.880;-0.862;2023-04-01T05:37:52;7.65;;;2.17;;
72358;SDS011;60317;48.880;-0.862;2023-04-01T05:40:19;6.50;;;2.20;;
72358;SDS011;60317;48.880;-0.862;2023-04-01T05:42:45;7.85;;;2.33;;
72358;SDS011;60317;48.880;-0.862;2023-04-01T05:45:12;6.70;;;2.10;;
72358;SDS011;60317;48.880;-0.862;2023-04-01T05:47:38;6.75;;;1.90;;
72358;SDS011;60317;48.880;-0.862;2023-04-01T05:50:05;5.53;;;2.13;;
72358;SDS011;60317;48.880;-0.862;2023-04-01T05:52:33;7.25;;;2.00;;
72358;SDS011;60317;48.880;-0.862;2023-04-01T05:55:00;7.07;;;2.00;;
72358;SDS011;60317;48.880;-0.862;2023-04-01T05:57:26;8.43;;;2.20;;
72358;SDS011;60317;48.880;-0.862;2023-04-01T05:59:53;7.43;;;2.10;;
72358;SDS011;60317;48.880;-0.862;2023-04-01T06:02:19;8.38;;;2.08;;
72358;SDS011;60317;48.880;-0.862;2023-04-01T06:04:46;4.70;;;1.83;;
72358;SDS011;60317;48.880;-0.862;2023-04-01T06:07:13;6.03;;;1.90;;
72358;SDS011;60317;48.880;-0.862;2023-04-01T06:09:42;7.78;;;2.13;;
72358;SDS011;60317;48.880;-0.862;2023-04-01T06:12:16;6.80;;;2.13;;
72358;SDS011;60317;48.880;-0.862;2023-04-01T06:14:57;8.30;;;2.15;;
72358;SDS011;60317;48.880;-0.862;2023-04-01T06:17:36;6.22;;;2.00;;
72358;SDS011;60317;48.880;-0.862;2023-04-01T06:20:16;9.25;;;2.20;;
72358;SDS011;60317;48.880;-0.862;2023-04-01T06:22:57;7.40;;;2.33;;
72358;SDS011;60317;48.880;-0.862;2023-04-01T06:25:42;8.07;;;2.33;;
72358;SDS011;60317;48.880;-0.862;2023-04-01T06:28:23;8.00;;;2.17;;
72358;SDS011;60317;48.880;-0.862;2023-04-01T06:31:05;6.55;;;1.77;;
72358;SDS011;60317;48.880;-0.862;2023-04-01T06:33:47;7.47;;;2.00;;
72358;SDS011;60317;48.880;-0.862;2023-04-01T06:36:25;5.40;;;1.70;;
72358;SDS011;60317;48.880;-0.862;2023-04-01T06:39:16;7.20;;;1.90;;
72358;SDS011;60317;48.880;-0.862;2023-04-01T06:41:55;7.63;;;2.10;;
72358;SDS011;60317;48.880;-0.862;2023-04-01T06:44:37;7.47;;;2.38;;
72358;SDS011;60317;48.880;-0.862;2023-04-01T06:47:19;7.85;;;2.20;;
72358;SDS011;60317;48.880;-0.862;2023-04-01T06:49:54;6.32;;;1.70;;
72358;SDS011;60317;48.880;-0.862;2023-04-01T06:52:31;8.52;;;2.38;;
72358;SDS011;60317;48.880;-0.862;2023-04-01T06:55:16;6.35;;;2.05;;
72358;SDS011;60317;48.880;-0.862;2023-04-01T06:57:52;8.88;;;2.20;;
72358;SDS011;60317;48.880;-0.862;2023-04-01T07:00:26;7.45;;;1.80;;
72358;SDS011;60317;48.880;-0.862;2023-04-01T07:02:56;8.43;;;1.95;;
72358;SDS011;60317;48.880;-0.862;2023-04-01T07:05:32;7.65;;;2.20;;
72358;SDS011;60317;48.880;-0.862;2023-04-01T07:08:01;5.78;;;1.92;;
72358;SDS011;60317;48.880;-0.862;2023-04-01T07:10:32;9.00;;;2.08;;
72358;SDS011;60317;48.880;-0.862;2023-04-01T07:13:04;6.10;;;1.70;;
72358;SDS011;60317;48.880;-0.862;2023-04-01T07:15:36;6.65;;;2.00;;
72358;SDS011;60317;48.880;-0.862;2023-04-01T07:18:05;8.60;;;2.58;;
72358;SDS011;60317;48.880;-0.862;2023-04-01T07:20:38;6.10;;;2.03;;
72358;SDS011;60317;48.880;-0.862;2023-04-01T07:23:06;7.18;;;2.03;;
72358;SDS011;60317;48.880;-0.862;2023-04-01T07:25:38;4.70;;;1.63;;
72358;SDS011;60317;48.880;-0.862;2023-04-01T07:28:12;8.40;;;2.30;;
72358;SDS011;60317;48.880;-0.862;2023-04-01T07:30:44;4.85;;;1.80;;
72358;SDS011;60317;48.880;-0.862;2023-04-01T07:33:19;7.28;;;2.20;;
72358;SDS011;60317;48.880;-0.862;2023-04-01T07:35:52;8.48;;;1.90;;
72358;SDS011;60317;48.880;-0.862;2023-04-01T07:38:28;6.93;;;2.08;;
72358;SDS011;60317;48.880;-0.862;2023-04-01T07:41:05;6.63;;;1.92;;
72358;SDS011;60317;48.880;-0.862;2023-04-01T07:43:47;6.75;;;2.20;;
72358;SDS011;60317;48.880;-0.862;2023-04-01T07:46:29;8.05;;;2.20;;
72358;SDS011;60317;48.880;-0.862;2023-04-01T07:49:10;5.70;;;1.63;;
72358;SDS011;60317;48.880;-0.862;2023-04-01T07:51:42;7.07;;;2.20;;
72358;SDS011;60317;48.880;-0.862;2023-04-01T07:54:16;7.30;;;2.00;;
72358;SDS011;60317;48.880;-0.862;2023-04-01T07:56:49;6.43;;;2.20;;
72358;SDS011;60317;48.880;-0.862;2023-04-01T07:59:24;5.18;;;1.90;;
72358;SDS011;60317;48.880;-0.862;2023-04-01T08:02:03;5.90;;;1.65;;
72358;SDS011;60317;48.880;-0.862;2023-04-01T08:04:39;5.22;;;1.58;;
72358;SDS011;60317;48.880;-0.862;2023-04-01T08:07:19;5.88;;;1.80;;
72358;SDS011;60317;48.880;-0.862;2023-04-01T08:09:51;7.28;;;2.00;;
72358;SDS011;60317;48.880;-0.862;2023-04-01T08:12:28;7.90;;;1.98;;
72358;SDS011;60317;48.880;-0.862;2023-04-01T08:15:12;6.63;;;2.20;;
72358;SDS011;60317;48.880;-0.862;2023-04-01T08:17:47;7.88;;;2.30;;
72358;SDS011;60317;48.880;-0.862;2023-04-01T08:20:25;4.80;;;1.50;;
72358;SDS011;60317;48.880;-0.862;2023-04-01T08:22:59;5.85;;;1.80;;
72358;SDS011;60317;48.880;-0.862;2023-04-01T08:25:31;5.95;;;1.80;;
72358;SDS011;60317;48.880;-0.862;2023-04-01T08:28:03;7.70;;;2.08;;
72358;SDS011;60317;48.880;-0.862;2023-04-01T08:30:38;6.00;;;1.80;;
72358;SDS011;60317;48.880;-0.862;2023-04-01T08:33:11;5.78;;;1.52;;
72358;SDS011;60317;48.880;-0.862;2023-04-01T08:35:42;6.72;;;2.10;;
72358;SDS011;60317;48.880;-0.862;2023-04-01T08:38:17;5.65;;;1.75;;
72358;SDS011;60317;48.880;-0.862;2023-04-01T08:40:58;7.30;;;2.17;;
72358;SDS011;60317;48.880;-0.862;2023-04-01T08:46:17;6.55;;;1.83;;
72358;SDS011;60317;48.880;-0.862;2023-04-01T08:49:00;3.83;;;1.52;;
72358;SDS011;60317;48.880;-0.862;2023-04-01T08:54:23;9.27;;;2.20;;
72358;SDS011;60317;48.880;-0.862;2023-04-01T08:57:01;7.30;;;2.05;;
72358;SDS011;60317;48.880;-0.862;2023-04-01T08:59:41;6.90;;;1.80;;
72358;SDS011;60317;48.880;-0.862;2023-04-01T09:02:25;5.50;;;2.20;;
72358;SDS011;60317;48.880;-0.862;2023-04-01T09:05:18;6.00;;;1.60;;
72358;SDS011;60317;48.880;-0.862;2023-04-01T09:07:58;5.50;;;1.73;;
72358;SDS011;60317;48.880;-0.862;2023-04-01T09:10:38;8.18;;;1.73;;
72358;SDS011;60317;48.880;-0.862;2023-04-01T09:13:23;7.65;;;2.08;;
72358;SDS011;60317;48.880;-0.862;2023-04-01T09:16:02;6.68;;;1.90;;
72358;SDS011;60317;48.880;-0.862;2023-04-01T09:18:47;6.15;;;1.70;;
72358;SDS011;60317;48.880;-0.862;2023-04-01T09:21:28;8.05;;;2.05;;
72358;SDS011;60317;48.880;-0.862;2023-04-01T09:24:20;5.18;;;1.70;;
72358;SDS011;60317;48.880;-0.862;2023-04-01T09:27:02;8.48;;;1.73;;
72358;SDS011;60317;48.880;-0.862;2023-04-01T09:29:36;8.02;;;2.15;;
72358;SDS011;60317;48.880;-0.862;2023-04-01T09:32:18;8.25;;;2.15;;
72358;SDS011;60317;48.880;-0.862;2023-04-01T09:35:02;6.97;;;1.60;;
72358;SDS011;60317;48.880;-0.862;2023-04-01T09:37:48;6.85;;;1.90;;
72358;SDS011;60317;48.880;-0.862;2023-04-01T09:40:21;7.55;;;1.80;;
72358;SDS011;60317;48.880;-0.862;2023-04-01T09:43:05;6.28;;;1.85;;
72358;SDS011;60317;48.880;-0.862;2023-04-01T09:45:46;6.88;;;1.80;;
72358;SDS011;60317;48.880;-0.862;2023-04-01T09:48:25;5.13;;;1.60;;
72358;SDS011;60317;48.880;-0.862;2023-04-01T09:51:09;6.17;;;1.70;;
72358;SDS011;60317;48.880;-0.862;2023-04-01T09:53:48;6.85;;;1.70;;
72358;SDS011;60317;48.880;-0.862;2023-04-01T09:56:36;6.70;;;2.05;;
72358;SDS011;60317;48.880;-0.862;2023-04-01T10:02:19;8.98;;;1.80;;
72358;SDS011;60317;48.880;-0.862;2023-04-01T10:10:46;7.63;;;1.95;;
72358;SDS011;60317;48.880;-0.862;2023-04-01T10:16:26;5.88;;;1.88;;
72358;SDS011;60317;48.880;-0.862;2023-04-01T10:22:10;6.88;;;2.22;;
72358;SDS011;60317;48.880;-0.862;2023-04-01T10:25:02;6.70;;;1.65;;
72358;SDS011;60317;48.880;-0.862;2023-04-01T10:27:46;5.47;;;1.60;;
72358;SDS011;60317;48.880;-0.862;2023-04-01T10:33:16;5.80;;;2.00;;
72358;SDS011;60317;48.880;-0.862;2023-04-01T10:36:01;4.60;;;1.70;;
72358;SDS011;60317;48.880;-0.862;2023-04-01T10:38:48;6.15;;;1.65;;
72358;SDS011;60317;48.880;-0.862;2023-04-01T10:41:43;8.57;;;1.75;;
72358;SDS011;60317;48.880;-0.862;2023-04-01T10:52:57;4.80;;;1.45;;
72358;SDS011;60317;48.880;-0.862;2023-04-01T10:58:32;5.65;;;1.67;;
72358;SDS011;60317;48.880;-0.862;2023-04-01T11:01:27;4.88;;;1.65;;
72358;SDS011;60317;48.880;-0.862;2023-04-01T11:04:31;6.35;;;1.90;;
72358;SDS011;60317;48.880;-0.862;2023-04-01T11:10:08;6.95;;;1.77;;
72358;SDS011;60317;48.880;-0.862;2023-04-01T11:27:10;5.28;;;1.60;;
72358;SDS011;60317;48.880;-0.862;2023-04-01T11:29:53;6.07;;;1.70;;
72358;SDS011;60317;48.880;-0.862;2023-04-01T11:32:39;7.07;;;1.75;;
72358;SDS011;60317;48.880;-0.862;2023-04-01T11:35:18;6.03;;;1.50;;
72358;SDS011;60317;48.880;-0.862;2023-04-01T11:38:02;5.82;;;1.60;;
72358;SDS011;60317;48.880;-0.862;2023-04-01T11:40:41;3.65;;;1.20;;
72358;SDS011;60317;48.880;-0.862;2023-04-01T11:43:16;5.78;;;1.60;;
72358;SDS011;60317;48.880;-0.862;2023-04-01T11:48:40;7.03;;;1.65;;
72358;SDS011;60317;48.880;-0.862;2023-04-01T11:51:27;7.35;;;1.88;;
72358;SDS011;60317;48.880;-0.862;2023-04-01T11:54:10;6.65;;;1.73;;
72358;SDS011;60317;48.880;-0.862;2023-04-01T11:56:52;4.82;;;1.60;;
72358;SDS011;60317;48.880;-0.862;2023-04-01T11:59:34;6.18;;;1.83;;
72358;SDS011;60317;48.880;-0.862;2023-04-01T12:02:16;5.40;;;1.88;;
72358;SDS011;60317;48.880;-0.862;2023-04-01T12:04:58;8.45;;;2.00;;
72358;SDS011;60317;48.880;-0.862;2023-04-01T12:07:42;5.90;;;1.80;;
72358;SDS011;60317;48.880;-0.862;2023-04-01T12:10:20;6.72;;;1.65;;
72358;SDS011;60317;48.880;-0.862;2023-04-01T12:12:58;6.10;;;1.48;;
72358;SDS011;60317;48.880;-0.862;2023-04-01T12:15:33;4.15;;;1.38;;
72358;SDS011;60317;48.880;-0.862;2023-04-01T12:18:14;5.13;;;1.60;;
72358;SDS011;60317;48.880;-0.862;2023-04-01T12:20:49;5.13;;;1.73;;
72358;SDS011;60317;48.880;-0.862;2023-04-01T12:23:30;6.03;;;1.50;;
72358;SDS011;60317;48.880;-0.862;2023-04-01T12:26:19;6.15;;;1.58;;
72358;SDS011;60317;48.880;-0.862;2023-04-01T12:29:07;8.55;;;1.83;;
72358;SDS011;60317;48.880;-0.862;2023-04-01T12:31:42;7.47;;;1.67;;
72358;SDS011;60317;48.880;-0.862;2023-04-01T12:34:24;5.95;;;1.75;;
72358;SDS011;60317;48.880;-0.862;2023-04-01T12:37:05;6.45;;;1.60;;
72358;SDS011;60317;48.880;-0.862;2023-04-01T12:39:44;3.22;;;1.40;;
72358;SDS011;60317;48.880;-0.862;2023-04-01T12:42:28;6.22;;;1.80;;
72358;SDS011;60317;48.880;-0.862;2023-04-01T12:45:12;4.57;;;1.40;;
72358;SDS011;60317;48.880;-0.862;2023-04-01T12:47:54;7.63;;;1.90;;
72358;SDS011;60317;48.880;-0.862;2023-04-01T12:50:39;6.05;;;1.65;;
72358;SDS011;60317;48.880;-0.862;2023-04-01T12:53:33;5.90;;;1.48;;
72358;SDS011;60317;48.880;-0.862;2023-04-01T12:56:14;4.90;;;1.60;;
72358;SDS011;60317;48.880;-0.862;2023-04-01T12:58:51;7.03;;;1.85;;
72358;SDS011;60317;48.880;-0.862;2023-04-01T13:01:34;9.32;;;1.90;;
72358;SDS011;60317;48.880;-0.862;2023-04-01T13:04:22;5.65;;;1.77;;
72358;SDS011;60317;48.880;-0.862;2023-04-01T13:07:04;7.32;;;2.00;;
72358;SDS011;60317;48.880;-0.862;2023-04-01T13:09:47;6.28;;;1.65;;
72358;SDS011;60317;48.880;-0.862;2023-04-01T13:12:26;6.30;;;1.92;;
72358;SDS011;60317;48.880;-0.862;2023-04-01T13:15:11;6.40;;;1.88;;
72358;SDS011;60317;48.880;-0.862;2023-04-01T13:17:47;6.80;;;1.73;;
72358;SDS011;60317;48.880;-0.862;2023-04-01T13:20:22;7.47;;;1.73;;
72358;SDS011;60317;48.880;-0.862;2023-04-01T13:23:05;4.68;;;1.73;;
72358;SDS011;60317;48.880;-0.862;2023-04-01T13:25:42;7.43;;;2.10;;
72358;SDS011;60317;48.880;-0.862;2023-04-01T13:28:34;5.13;;;1.60;;
72358;SDS011;60317;48.880;-0.862;2023-04-01T13:31:07;4.00;;;1.48;;
72358;SDS011;60317;48.880;-0.862;2023-04-01T13:33:42;5.85;;;1.65;;
72358;SDS011;60317;48.880;-0.862;2023-04-01T13:36:18;5.72;;;1.80;;
72358;SDS011;60317;48.880;-0.862;2023-04-01T13:38:57;4.45;;;1.50;;
72358;SDS011;60317;48.880;-0.862;2023-04-01T13:41:38;4.80;;;1.42;;
72358;SDS011;60317;48.880;-0.862;2023-04-01T13:44:17;6.60;;;1.67;;
72358;SDS011;60317;48.880;-0.862;2023-04-01T13:46:57;5.03;;;1.33;;
72358;SDS011;60317;48.880;-0.862;2023-04-01T13:49:40;6.10;;;1.65;;
72358;SDS011;60317;48.880;-0.862;2023-04-01T13:52:20;5.65;;;1.77;;
72358;SDS011;60317;48.880;-0.862;2023-04-01T13:55:00;5.78;;;1.77;;
72358;SDS011;60317;48.880;-0.862;2023-04-01T13:57:51;7.63;;;1.80;;
72358;SDS011;60317;48.880;-0.862;2023-04-01T14:00:36;6.28;;;1.90;;
72358;SDS011;60317;48.880;-0.862;2023-04-01T14:03:16;7.65;;;2.22;;
72358;SDS011;60317;48.880;-0.862;2023-04-01T14:05:56;7.28;;;2.15;;
72358;SDS011;60317;48.880;-0.862;2023-04-01T14:08:36;6.55;;;2.00;;
72358;SDS011;60317;48.880;-0.862;2023-04-01T14:11:16;7.13;;;2.22;;
72358;SDS011;60317;48.880;-0.862;2023-04-01T14:13:50;6.85;;;2.00;;
72358;SDS011;60317;48.880;-0.862;2023-04-01T14:16:32;5.85;;;1.85;;
72358;SDS011;60317;48.880;-0.862;2023-04-01T14:19:16;6.28;;;2.20;;
72358;SDS011;60317;48.880;-0.862;2023-04-01T14:21:58;7.57;;;1.80;;
72358;SDS011;60317;48.880;-0.862;2023-04-01T14:24:34;6.60;;;1.83;;
72358;SDS011;60317;48.880;-0.862;2023-04-01T14:27:13;6.18;;;2.00;;
72358;SDS011;60317;48.880;-0.862;2023-04-01T14:32:34;7.60;;;2.30;;
72358;SDS011;60317;48.880;-0.862;2023-04-01T14:35:19;8.35;;;2.00;;
72358;SDS011;60317;48.880;-0.862;2023-04-01T14:38:02;6.78;;;1.70;;
72358;SDS011;60317;48.880;-0.862;2023-04-01T14:40:48;7.90;;;1.98;;
72358;SDS011;60317;48.880;-0.862;2023-04-01T14:43:25;5.45;;;1.80;;
72358;SDS011;60317;48.880;-0.862;2023-04-01T14:46:12;9.15;;;1.65;;
72358;SDS011;60317;48.880;-0.862;2023-04-01T14:48:57;6.57;;;1.70;;
72358;SDS011;60317;48.880;-0.862;2023-04-01T14:51:30;6.20;;;2.00;;
72358;SDS011;60317;48.880;-0.862;2023-04-01T14:54:02;4.93;;;1.92;;
72358;SDS011;60317;48.880;-0.862;2023-04-01T14:56:36;7.68;;;1.80;;
72358;SDS011;60317;48.880;-0.862;2023-04-01T14:59:07;7.35;;;2.03;;
72358;SDS011;60317;48.880;-0.862;2023-04-01T15:01:37;7.22;;;1.95;;
72358;SDS011;60317;48.880;-0.862;2023-04-01T15:04:22;7.25;;;2.10;;
72358;SDS011;60317;48.880;-0.862;2023-04-01T15:07:05;6.93;;;2.08;;
72358;SDS011;60317;48.880;-0.862;2023-04-01T15:09:47;7.43;;;1.88;;
72358;SDS011;60317;48.880;-0.862;2023-04-01T15:12:23;5.65;;;1.85;;
72358;SDS011;60317;48.880;-0.862;2023-04-01T15:14:59;5.70;;;2.00;;
72358;SDS011;60317;48.880;-0.862;2023-04-01T15:17:47;9.07;;;2.13;;
72358;SDS011;60317;48.880;-0.862;2023-04-01T15:20:25;7.57;;;2.17;;
72358;SDS011;60317;48.880;-0.862;2023-04-01T15:23:04;5.82;;;1.70;;
72358;SDS011;60317;48.880;-0.862;2023-04-01T15:25:45;8.20;;;2.08;;
72358;SDS011;60317;48.880;-0.862;2023-04-01T15:28:28;7.07;;;2.05;;
72358;SDS011;60317;48.880;-0.862;2023-04-01T15:31:04;7.28;;;2.53;;
72358;SDS011;60317;48.880;-0.862;2023-04-01T15:33:41;8.07;;;1.92;;
72358;SDS011;60317;48.880;-0.862;2023-04-01T15:36:24;10.50;;;2.38;;
72358;SDS011;60317;48.880;-0.862;2023-04-01T15:39:02;8.07;;;2.50;;
72358;SDS011;60317;48.880;-0.862;2023-04-01T15:41:40;7.28;;;2.05;;
72358;SDS011;60317;48.880;-0.862;2023-04-01T15:47:24;9.35;;;2.17;;
72358;SDS011;60317;48.880;-0.862;2023-04-01T15:50:01;8.57;;;2.25;;
72358;SDS011;60317;48.880;-0.862;2023-04-01T15:52:49;10.23;;;2.50;;
72358;SDS011;60317;48.880;-0.862;2023-04-01T15:55:26;6.07;;;2.00;;
72358;SDS011;60317;48.880;-0.862;2023-04-01T15:58:01;8.77;;;2.53;;
72358;SDS011;60317;48.880;-0.862;2023-04-01T16:00:47;7.95;;;2.20;;
72358;SDS011;60317;48.880;-0.862;2023-04-01T16:03:23;9.23;;;2.03;;
72358;SDS011;60317;48.880;-0.862;2023-04-01T16:06:06;7.95;;;2.50;;
72358;SDS011;60317;48.880;-0.862;2023-04-01T16:08:51;7.82;;;1.92;;
72358;SDS011;60317;48.880;-0.862;2023-04-01T16:11:31;6.10;;;1.90;;
72358;SDS011;60317;48.880;-0.862;2023-04-01T16:14:09;8.02;;;2.17;;
72358;SDS011;60317;48.880;-0.862;2023-04-01T16:16:48;7.82;;;2.00;;
72358;SDS011;60317;48.880;-0.862;2023-04-01T16:19:32;7.90;;;2.30;;
72358;SDS011;60317;48.880;-0.862;2023-04-01T16:22:08;7.95;;;1.77;;